sensor_id;sensor_type;location;lat;lon;timestamp;P1;durP1;ratioP1;P2;durP2;ratioP2
32365;SDS011;18837;46.832;16.838;2023-08-30T00:00:14;1.90;;;0.60;;
32365;SDS011;18837;46.832;16.838;2023-08-30T00:02:42;0.40;;;0.40;;
32365;SDS011;18837;46.832;16.838;2023-08-30T00:05:11;0.57;;;0.30;;
32365;SDS011;18837;46.832;16.838;2023-08-30T00:07:37;0.40;;;0.40;;
32365;SDS011;18837;46.832;16.838;2023-08-30T00:10:02;0.40;;;0.40;;
32365;SDS011;18837;46.832;16.838;2023-08-30T00:12:29;0.40;;;0.40;;
32365;SDS011;18837;46.832;16.838;2023-08-30T00:14:55;1.33;;;0.40;;
32365;SDS011;18837;46.832;16.838;2023-08-30T00:17:22;0.50;;;0.50;;
32365;SDS011;18837;46.832;16.838;2023-08-30T00:19:48;0.53;;;0.50;;
32365;SDS011;18837;46.832;16.838;2023-08-30T00:22:15;0.40;;;0.40;;
32365;SDS011;18837;46.832;16.838;2023-08-30T00:24:41;1.70;;;0.50;;
32365;SDS011;18837;46.832;16.838;2023-08-30T00:27:07;0.80;;;0.57;;
32365;SDS011;18837;46.832;16.838;2023-08-30T00:29:38;0.40;;;0.40;;
32365;SDS011;18837;46.832;16.838;2023-08-30T00:32:04;0.40;;;0.40;;
32365;SDS011;18837;46.832;16.838;2023-08-30T00:34:30;2.33;;;0.43;;
32365;SDS011;18837;46.832;16.838;2023-08-30T00:36:56;1.40;;;0.47;;
32365;SDS011;18837;46.832;16.838;2023-08-30T00:39:22;0.37;;;0.30;;
32365;SDS011;18837;46.832;16.838;2023-08-30T00:41:48;0.80;;;0.50;;
32365;SDS011;18837;46.832;16.838;2023-08-30T00:44:32;2.93;;;0.57;;
32365;SDS011;18837;46.832;16.838;2023-08-30T00:50:01;0.40;;;0.40;;
32365;SDS011;18837;46.832;16.838;2023-08-30T00:52:27;0.77;;;0.50;;
32365;SDS011;18837;46.832;16.838;2023-08-30T00:54:53;1.37;;;0.47;;
32365;SDS011;18837;46.832;16.838;2023-08-30T00:57:19;0.77;;;0.40;;
32365;SDS011;18837;46.832;16.838;2023-08-30T00:59:45;0.43;;;0.33;;
32365;SDS011;18837;46.832;16.838;2023-08-30T01:02:11;0.47;;;0.30;;
32365;SDS011;18837;46.832;16.838;2023-08-30T01:04:37;0.30;;;0.30;;
32365;SDS011;18837;46.832;16.838;2023-08-30T01:07:03;1.30;;;0.40;;
32365;SDS011;18837;46.832;16.838;2023-08-30T01:09:29;0.57;;;0.43;;
32365;SDS011;18837;46.832;16.838;2023-08-30T01:14:54;1.10;;;0.40;;
32365;SDS011;18837;46.832;16.838;2023-08-30T01:17:23;0.50;;;0.40;;
32365;SDS011;18837;46.832;16.838;2023-08-30T01:20:00;0.30;;;0.30;;
32365;SDS011;18837;46.832;16.838;2023-08-30T01:23:05;1.30;;;0.30;;
32365;SDS011;18837;46.832;16.838;2023-08-30T01:25:53;0.70;;;0.30;;
32365;SDS011;18837;46.832;16.838;2023-08-30T01:28:29;0.30;;;0.30;;
32365;SDS011;18837;46.832;16.838;2023-08-30T01:30:58;0.30;;;0.30;;
32365;SDS011;18837;46.832;16.838;2023-08-30T01:33:25;1.27;;;0.50;;
32365;SDS011;18837;46.832;16.838;2023-08-30T01:35:55;0.47;;;0.40;;
32365;SDS011;18837;46.832;16.838;2023-08-30T01:38:23;0.20;;;0.20;;
32365;SDS011;18837;46.832;16.838;2023-08-30T01:40:51;0.40;;;0.40;;
32365;SDS011;18837;46.832;16.838;2023-08-30T01:43:20;1.00;;;0.40;;
32365;SDS011;18837;46.832;16.838;2023-08-30T01:45:47;0.43;;;0.30;;
32365;SDS011;18837;46.832;16.838;2023-08-30T01:48:21;0.40;;;0.40;;
32365;SDS011;18837;46.832;16.838;2023-08-30T01:50:47;0.53;;;0.40;;
32365;SDS011;18837;46.832;16.838;2023-08-30T01:53:14;0.40;;;0.40;;
32365;SDS011;18837;46.832;16.838;2023-08-30T01:55:40;0.30;;;0.30;;
32365;SDS011;18837;46.832;16.838;2023-08-30T01:58:07;0.30;;;0.30;;
32365;SDS011;18837;46.832;16.838;2023-08-30T02:00:37;0.73;;;0.37;;
32365;SDS011;18837;46.832;16.838;2023-08-30T02:12:07;1.27;;;0.53;;
32365;SDS011;18837;46.832;16.838;2023-08-30T02:14:38;0.60;;;0.40;;
32365;SDS011;18837;46.832;16.838;2023-08-30T02:17:06;1.10;;;0.50;;
32365;SDS011;18837;46.832;16.838;2023-08-30T02:19:33;0.50;;;0.50;;
32365;SDS011;18837;46.832;16.838;2023-08-30T02:22:08;0.27;;;0.23;;
32365;SDS011;18837;46.832;16.838;2023-08-30T02:24:34;0.47;;;0.30;;
32365;SDS011;18837;46.832;16.838;2023-08-30T02:27:00;0.47;;;0.47;;
32365;SDS011;18837;46.832;16.838;2023-08-30T02:29:26;0.40;;;0.40;;
32365;SDS011;18837;46.832;16.838;2023-08-30T02:31:52;0.40;;;0.40;;
32365;SDS011;18837;46.832;16.838;2023-08-30T02:34:17;0.40;;;0.40;;
32365;SDS011;18837;46.832;16.838;2023-08-30T02:36:43;0.30;;;0.30;;
32365;SDS011;18837;46.832;16.838;2023-08-30T02:39:24;0.40;;;0.30;;
32365;SDS011;18837;46.832;16.838;2023-08-30T02:44:35;0.67;;;0.40;;
32365;SDS011;18837;46.832;16.838;2023-08-30T02:47:01;0.60;;;0.40;;
32365;SDS011;18837;46.832;16.838;2023-08-30T02:49:26;0.50;;;0.30;;
32365;SDS011;18837;46.832;16.838;2023-08-30T02:51:52;1.13;;;0.30;;
32365;SDS011;18837;46.832;16.838;2023-08-30T02:54:18;0.40;;;0.30;;
32365;SDS011;18837;46.832;16.838;2023-08-30T02:56:49;0.40;;;0.40;;
32365;SDS011;18837;46.832;16.838;2023-08-30T02:59:25;1.17;;;0.50;;
32365;SDS011;18837;46.832;16.838;2023-08-30T03:01:50;0.50;;;0.50;;
32365;SDS011;18837;46.832;16.838;2023-08-30T03:04:16;0.43;;;0.40;;
32365;SDS011;18837;46.832;16.838;2023-08-30T03:06:42;0.47;;;0.43;;
32365;SDS011;18837;46.832;16.838;2023-08-30T03:09:08;0.40;;;0.40;;
32365;SDS011;18837;46.832;16.838;2023-08-30T03:11:46;0.67;;;0.30;;
32365;SDS011;18837;46.832;16.838;2023-08-30T03:17:40;0.40;;;0.40;;
32365;SDS011;18837;46.832;16.838;2023-08-30T03:20:08;0.77;;;0.53;;
32365;SDS011;18837;46.832;16.838;2023-08-30T03:22:35;0.30;;;0.30;;
32365;SDS011;18837;46.832;16.838;2023-08-30T03:25:00;0.20;;;0.20;;
32365;SDS011;18837;46.832;16.838;2023-08-30T03:27:29;0.53;;;0.40;;
32365;SDS011;18837;46.832;16.838;2023-08-30T03:29:55;0.40;;;0.40;;
32365;SDS011;18837;46.832;16.838;2023-08-30T03:32:26;0.40;;;0.20;;
32365;SDS011;18837;46.832;16.838;2023-08-30T03:34:57;1.17;;;0.37;;
32365;SDS011;18837;46.832;16.838;2023-08-30T03:37:23;0.40;;;0.30;;
32365;SDS011;18837;46.832;16.838;2023-08-30T03:39:49;1.33;;;0.30;;
32365;SDS011;18837;46.832;16.838;2023-08-30T03:42:14;0.63;;;0.40;;
32365;SDS011;18837;46.832;16.838;2023-08-30T03:44:40;0.40;;;0.40;;
32365;SDS011;18837;46.832;16.838;2023-08-30T03:50:08;1.03;;;0.43;;
32365;SDS011;18837;46.832;16.838;2023-08-30T03:52:34;0.43;;;0.30;;
32365;SDS011;18837;46.832;16.838;2023-08-30T03:55:00;0.50;;;0.50;;
32365;SDS011;18837;46.832;16.838;2023-08-30T03:57:27;0.30;;;0.30;;
32365;SDS011;18837;46.832;16.838;2023-08-30T03:59:52;0.20;;;0.20;;
32365;SDS011;18837;46.832;16.838;2023-08-30T04:02:18;0.73;;;0.40;;
32365;SDS011;18837;46.832;16.838;2023-08-30T04:04:56;0.50;;;0.40;;
32365;SDS011;18837;46.832;16.838;2023-08-30T04:07:22;0.53;;;0.40;;
32365;SDS011;18837;46.832;16.838;2023-08-30T04:09:47;1.37;;;0.40;;
32365;SDS011;18837;46.832;16.838;2023-08-30T04:12:13;2.00;;;0.50;;
32365;SDS011;18837;46.832;16.838;2023-08-30T04:14:39;0.53;;;0.40;;
32365;SDS011;18837;46.832;16.838;2023-08-30T04:17:05;0.30;;;0.30;;
32365;SDS011;18837;46.832;16.838;2023-08-30T04:19:31;0.53;;;0.30;;
32365;SDS011;18837;46.832;16.838;2023-08-30T04:24:54;0.40;;;0.40;;
32365;SDS011;18837;46.832;16.838;2023-08-30T04:27:39;1.13;;;0.47;;
32365;SDS011;18837;46.832;16.838;2023-08-30T04:30:05;0.87;;;0.67;;
32365;SDS011;18837;46.832;16.838;2023-08-30T04:32:31;0.60;;;0.37;;
32365;SDS011;18837;46.832;16.838;2023-08-30T04:34:57;0.53;;;0.40;;
32365;SDS011;18837;46.832;16.838;2023-08-30T04:37:23;0.50;;;0.37;;
32365;SDS011;18837;46.832;16.838;2023-08-30T04:39:50;0.37;;;0.27;;
32365;SDS011;18837;46.832;16.838;2023-08-30T04:42:16;1.43;;;0.30;;
32365;SDS011;18837;46.832;16.838;2023-08-30T04:44:42;0.93;;;0.30;;
32365;SDS011;18837;46.832;16.838;2023-08-30T04:47:07;0.50;;;0.30;;
32365;SDS011;18837;46.832;16.838;2023-08-30T04:49:33;0.30;;;0.30;;
32365;SDS011;18837;46.832;16.838;2023-08-30T04:51:59;0.93;;;0.30;;
32365;SDS011;18837;46.832;16.838;2023-08-30T05:00:36;1.83;;;0.30;;
32365;SDS011;18837;46.832;16.838;2023-08-30T05:03:11;0.33;;;0.33;;
32365;SDS011;18837;46.832;16.838;2023-08-30T05:05:37;0.73;;;0.33;;
32365;SDS011;18837;46.832;16.838;2023-08-30T05:08:03;0.77;;;0.40;;
32365;SDS011;18837;46.832;16.838;2023-08-30T05:10:29;0.50;;;0.40;;
32365;SDS011;18837;46.832;16.838;2023-08-30T05:12:55;0.40;;;0.40;;
32365;SDS011;18837;46.832;16.838;2023-08-30T05:15:21;0.43;;;0.43;;
32365;SDS011;18837;46.832;16.838;2023-08-30T05:17:47;0.40;;;0.30;;
32365;SDS011;18837;46.832;16.838;2023-08-30T05:20:13;0.50;;;0.40;;
32365;SDS011;18837;46.832;16.838;2023-08-30T05:22:39;0.73;;;0.50;;
32365;SDS011;18837;46.832;16.838;2023-08-30T05:25:04;0.50;;;0.47;;
32365;SDS011;18837;46.832;16.838;2023-08-30T05:27:30;0.33;;;0.33;;
32365;SDS011;18837;46.832;16.838;2023-08-30T05:29:56;0.53;;;0.27;;
32365;SDS011;18837;46.832;16.838;2023-08-30T05:32:22;0.57;;;0.47;;
32365;SDS011;18837;46.832;16.838;2023-08-30T05:34:48;0.50;;;0.50;;
32365;SDS011;18837;46.832;16.838;2023-08-30T05:37:14;0.83;;;0.30;;
32365;SDS011;18837;46.832;16.838;2023-08-30T05:39:40;0.33;;;0.33;;
32365;SDS011;18837;46.832;16.838;2023-08-30T05:42:05;0.30;;;0.30;;
32365;SDS011;18837;46.832;16.838;2023-08-30T05:44:31;1.47;;;0.40;;
32365;SDS011;18837;46.832;16.838;2023-08-30T05:46:57;0.40;;;0.30;;
32365;SDS011;18837;46.832;16.838;2023-08-30T05:49:23;0.60;;;0.40;;
32365;SDS011;18837;46.832;16.838;2023-08-30T05:51:49;0.40;;;0.40;;
32365;SDS011;18837;46.832;16.838;2023-08-30T05:54:15;0.87;;;0.50;;
32365;SDS011;18837;46.832;16.838;2023-08-30T05:56:41;1.80;;;0.40;;
32365;SDS011;18837;46.832;16.838;2023-08-30T05:59:07;0.97;;;0.30;;
32365;SDS011;18837;46.832;16.838;2023-08-30T06:01:32;0.57;;;0.40;;
32365;SDS011;18837;46.832;16.838;2023-08-30T06:03:58;1.90;;;0.53;;
32365;SDS011;18837;46.832;16.838;2023-08-30T06:06:24;0.40;;;0.40;;
32365;SDS011;18837;46.832;16.838;2023-08-30T06:08:50;0.53;;;0.43;;
32365;SDS011;18837;46.832;16.838;2023-08-30T06:11:16;0.50;;;0.50;;
32365;SDS011;18837;46.832;16.838;2023-08-30T06:13:41;0.50;;;0.50;;
32365;SDS011;18837;46.832;16.838;2023-08-30T06:16:07;0.77;;;0.50;;
32365;SDS011;18837;46.832;16.838;2023-08-30T06:18:33;1.00;;;0.30;;
32365;SDS011;18837;46.832;16.838;2023-08-30T06:20:59;0.80;;;0.50;;
32365;SDS011;18837;46.832;16.838;2023-08-30T06:23:25;0.97;;;0.40;;
32365;SDS011;18837;46.832;16.838;2023-08-30T06:25:54;0.30;;;0.30;;
32365;SDS011;18837;46.832;16.838;2023-08-30T06:28:23;0.73;;;0.40;;
32365;SDS011;18837;46.832;16.838;2023-08-30T06:30:49;1.40;;;0.50;;
32365;SDS011;18837;46.832;16.838;2023-08-30T06:33:15;1.03;;;0.50;;
32365;SDS011;18837;46.832;16.838;2023-08-30T06:35:41;0.73;;;0.47;;
32365;SDS011;18837;46.832;16.838;2023-08-30T06:38:08;0.60;;;0.50;;
32365;SDS011;18837;46.832;16.838;2023-08-30T06:40:33;0.80;;;0.40;;
32365;SDS011;18837;46.832;16.838;2023-08-30T06:43:00;1.77;;;0.70;;
32365;SDS011;18837;46.832;16.838;2023-08-30T06:45:26;0.40;;;0.40;;
32365;SDS011;18837;46.832;16.838;2023-08-30T06:47:52;1.00;;;0.40;;
32365;SDS011;18837;46.832;16.838;2023-08-30T06:50:17;0.87;;;0.60;;
32365;SDS011;18837;46.832;16.838;2023-08-30T06:52:43;0.40;;;0.40;;
32365;SDS011;18837;46.832;16.838;2023-08-30T06:55:09;0.87;;;0.40;;
32365;SDS011;18837;46.832;16.838;2023-08-30T06:57:35;0.97;;;0.60;;
32365;SDS011;18837;46.832;16.838;2023-08-30T07:00:01;0.40;;;0.40;;
32365;SDS011;18837;46.832;16.838;2023-08-30T07:02:33;1.70;;;0.40;;
32365;SDS011;18837;46.832;16.838;2023-08-30T07:05:00;0.60;;;0.50;;
32365;SDS011;18837;46.832;16.838;2023-08-30T07:07:26;0.50;;;0.50;;
32365;SDS011;18837;46.832;16.838;2023-08-30T07:09:52;0.60;;;0.50;;
32365;SDS011;18837;46.832;16.838;2023-08-30T07:12:18;1.03;;;0.63;;
32365;SDS011;18837;46.832;16.838;2023-08-30T07:14:44;0.83;;;0.57;;
32365;SDS011;18837;46.832;16.838;2023-08-30T07:17:09;0.73;;;0.60;;
32365;SDS011;18837;46.832;16.838;2023-08-30T07:19:35;0.80;;;0.50;;
32365;SDS011;18837;46.832;16.838;2023-08-30T07:22:01;0.70;;;0.50;;
32365;SDS011;18837;46.832;16.838;2023-08-30T07:24:28;0.93;;;0.50;;
32365;SDS011;18837;46.832;16.838;2023-08-30T07:26:54;0.73;;;0.63;;
32365;SDS011;18837;46.832;16.838;2023-08-30T07:29:19;0.70;;;0.50;;
32365;SDS011;18837;46.832;16.838;2023-08-30T07:31:45;0.40;;;0.40;;
32365;SDS011;18837;46.832;16.838;2023-08-30T07:34:11;0.63;;;0.60;;
32365;SDS011;18837;46.832;16.838;2023-08-30T07:36:37;0.63;;;0.50;;
32365;SDS011;18837;46.832;16.838;2023-08-30T07:39:03;0.40;;;0.40;;
32365;SDS011;18837;46.832;16.838;2023-08-30T07:41:29;0.50;;;0.40;;
32365;SDS011;18837;46.832;16.838;2023-08-30T07:44:12;0.53;;;0.30;;
32365;SDS011;18837;46.832;16.838;2023-08-30T07:46:38;0.63;;;0.50;;
32365;SDS011;18837;46.832;16.838;2023-08-30T07:49:04;0.40;;;0.40;;
32365;SDS011;18837;46.832;16.838;2023-08-30T07:51:30;2.20;;;0.67;;
32365;SDS011;18837;46.832;16.838;2023-08-30T07:53:56;0.40;;;0.40;;
32365;SDS011;18837;46.832;16.838;2023-08-30T07:56:22;1.10;;;0.50;;
32365;SDS011;18837;46.832;16.838;2023-08-30T07:58:48;0.93;;;0.60;;
32365;SDS011;18837;46.832;16.838;2023-08-30T08:01:14;3.67;;;1.00;;
32365;SDS011;18837;46.832;16.838;2023-08-30T08:03:45;1.30;;;1.00;;
32365;SDS011;18837;46.832;16.838;2023-08-30T08:06:10;6.77;;;1.10;;
32365;SDS011;18837;46.832;16.838;2023-08-30T08:08:36;3.17;;;1.17;;
32365;SDS011;18837;46.832;16.838;2023-08-30T08:11:02;2.83;;;0.90;;
32365;SDS011;18837;46.832;16.838;2023-08-30T08:13:28;4.17;;;1.17;;
32365;SDS011;18837;46.832;16.838;2023-08-30T08:15:57;3.37;;;0.90;;
32365;SDS011;18837;46.832;16.838;2023-08-30T08:18:23;4.17;;;1.20;;
32365;SDS011;18837;46.832;16.838;2023-08-30T08:20:49;2.30;;;1.10;;
32365;SDS011;18837;46.832;16.838;2023-08-30T08:23:15;4.17;;;1.17;;
32365;SDS011;18837;46.832;16.838;2023-08-30T08:25:41;1.57;;;0.90;;
32365;SDS011;18837;46.832;16.838;2023-08-30T08:28:06;1.90;;;1.00;;
32365;SDS011;18837;46.832;16.838;2023-08-30T08:30:32;2.53;;;0.90;;
32365;SDS011;18837;46.832;16.838;2023-08-30T08:32:58;1.63;;;0.80;;
32365;SDS011;18837;46.832;16.838;2023-08-30T08:35:24;4.07;;;0.80;;
32365;SDS011;18837;46.832;16.838;2023-08-30T08:37:50;1.90;;;0.90;;
32365;SDS011;18837;46.832;16.838;2023-08-30T08:40:16;2.60;;;0.73;;
32365;SDS011;18837;46.832;16.838;2023-08-30T08:42:42;2.37;;;0.90;;
32365;SDS011;18837;46.832;16.838;2023-08-30T08:45:09;1.37;;;0.80;;
32365;SDS011;18837;46.832;16.838;2023-08-30T08:47:38;3.97;;;1.20;;
32365;SDS011;18837;46.832;16.838;2023-08-30T08:50:04;3.33;;;0.90;;
32365;SDS011;18837;46.832;16.838;2023-08-30T08:52:31;1.17;;;0.90;;
32365;SDS011;18837;46.832;16.838;2023-08-30T08:54:57;1.17;;;0.80;;
32365;SDS011;18837;46.832;16.838;2023-08-30T08:57:24;4.23;;;1.07;;
32365;SDS011;18837;46.832;16.838;2023-08-30T08:59:55;1.97;;;0.97;;
32365;SDS011;18837;46.832;16.838;2023-08-30T09:02:21;1.83;;;1.17;;
32365;SDS011;18837;46.832;16.838;2023-08-30T09:07:34;1.47;;;0.90;;
32365;SDS011;18837;46.832;16.838;2023-08-30T09:10:01;2.50;;;0.87;;
32365;SDS011;18837;46.832;16.838;2023-08-30T09:12:27;1.53;;;1.00;;
32365;SDS011;18837;46.832;16.838;2023-08-30T09:14:53;1.37;;;1.20;;
32365;SDS011;18837;46.832;16.838;2023-08-30T09:17:20;1.23;;;1.13;;
32365;SDS011;18837;46.832;16.838;2023-08-30T09:20:05;1.20;;;1.10;;
32365;SDS011;18837;46.832;16.838;2023-08-30T09:25:40;2.47;;;1.30;;
32365;SDS011;18837;46.832;16.838;2023-08-30T09:28:06;1.43;;;1.33;;
32365;SDS011;18837;46.832;16.838;2023-08-30T09:30:32;1.83;;;0.97;;
32365;SDS011;18837;46.832;16.838;2023-08-30T09:33:02;1.20;;;1.10;;
32365;SDS011;18837;46.832;16.838;2023-08-30T09:35:28;1.57;;;1.23;;
32365;SDS011;18837;46.832;16.838;2023-08-30T09:38:15;1.10;;;1.00;;
32365;SDS011;18837;46.832;16.838;2023-08-30T09:40:43;2.43;;;1.10;;
32365;SDS011;18837;46.832;16.838;2023-08-30T09:43:10;1.40;;;1.17;;
32365;SDS011;18837;46.832;16.838;2023-08-30T09:45:36;1.33;;;1.20;;
32365;SDS011;18837;46.832;16.838;2023-08-30T09:48:03;1.23;;;1.13;;
32365;SDS011;18837;46.832;16.838;2023-08-30T09:50:32;1.53;;;1.10;;
32365;SDS011;18837;46.832;16.838;2023-08-30T09:59:32;1.40;;;1.10;;
32365;SDS011;18837;46.832;16.838;2023-08-30T10:01:58;1.30;;;1.20;;
32365;SDS011;18837;46.832;16.838;2023-08-30T10:04:27;1.10;;;1.00;;
32365;SDS011;18837;46.832;16.838;2023-08-30T10:06:54;1.80;;;1.20;;
32365;SDS011;18837;46.832;16.838;2023-08-30T10:09:22;1.20;;;1.10;;
32365;SDS011;18837;46.832;16.838;2023-08-30T10:14:37;1.20;;;1.10;;
32365;SDS011;18837;46.832;16.838;2023-08-30T10:17:03;1.33;;;1.20;;
32365;SDS011;18837;46.832;16.838;2023-08-30T10:19:33;1.40;;;1.30;;
32365;SDS011;18837;46.832;16.838;2023-08-30T10:22:05;1.30;;;1.20;;
32365;SDS011;18837;46.832;16.838;2023-08-30T10:25:14;1.23;;;1.13;;
32365;SDS011;18837;46.832;16.838;2023-08-30T10:34:14;1.40;;;1.30;;
32365;SDS011;18837;46.832;16.838;2023-08-30T10:36:56;1.30;;;1.20;;
32365;SDS011;18837;46.832;16.838;2023-08-30T10:39:27;1.07;;;1.00;;
32365;SDS011;18837;46.832;16.838;2023-08-30T10:44:35;1.40;;;1.30;;
32365;SDS011;18837;46.832;16.838;2023-08-30T10:47:38;1.87;;;1.20;;
32365;SDS011;18837;46.832;16.838;2023-08-30T10:50:05;1.50;;;1.27;;
32365;SDS011;18837;46.832;16.838;2023-08-30T10:52:35;1.27;;;1.17;;
32365;SDS011;18837;46.832;16.838;2023-08-30T10:55:35;1.20;;;1.10;;
32365;SDS011;18837;46.832;16.838;2023-08-30T10:58:01;1.40;;;1.30;;
32365;SDS011;18837;46.832;16.838;2023-08-30T11:00:29;1.30;;;1.20;;
32365;SDS011;18837;46.832;16.838;2023-08-30T11:08:47;1.30;;;1.20;;
32365;SDS011;18837;46.832;16.838;2023-08-30T11:11:13;1.50;;;1.27;;
32365;SDS011;18837;46.832;16.838;2023-08-30T11:13:39;1.40;;;1.30;;
32365;SDS011;18837;46.832;16.838;2023-08-30T11:16:05;1.20;;;1.10;;
32365;SDS011;18837;46.832;16.838;2023-08-30T11:18:36;1.50;;;1.40;;
32365;SDS011;18837;46.832;16.838;2023-08-30T11:21:12;1.57;;;1.47;;
32365;SDS011;18837;46.832;16.838;2023-08-30T11:23:38;1.50;;;1.40;;
32365;SDS011;18837;46.832;16.838;2023-08-30T11:26:04;1.30;;;1.20;;
32365;SDS011;18837;46.832;16.838;2023-08-30T11:28:32;1.10;;;1.10;;
32365;SDS011;18837;46.832;16.838;2023-08-30T11:30:58;1.17;;;1.10;;
32365;SDS011;18837;46.832;16.838;2023-08-30T11:33:24;1.40;;;1.30;;
32365;SDS011;18837;46.832;16.838;2023-08-30T11:35:50;1.40;;;1.30;;
32365;SDS011;18837;46.832;16.838;2023-08-30T11:38:29;1.40;;;1.30;;
32365;SDS011;18837;46.832;16.838;2023-08-30T11:41:29;1.43;;;1.33;;
32365;SDS011;18837;46.832;16.838;2023-08-30T11:43:56;1.40;;;1.30;;
32365;SDS011;18837;46.832;16.838;2023-08-30T11:46:24;1.37;;;1.27;;
32365;SDS011;18837;46.832;16.838;2023-08-30T11:48:50;1.57;;;1.47;;
32365;SDS011;18837;46.832;16.838;2023-08-30T11:51:17;1.50;;;1.40;;
32365;SDS011;18837;46.832;16.838;2023-08-30T11:53:44;1.40;;;1.30;;
32365;SDS011;18837;46.832;16.838;2023-08-30T11:56:11;1.50;;;1.40;;
32365;SDS011;18837;46.832;16.838;2023-08-30T11:58:37;1.40;;;1.30;;
32365;SDS011;18837;46.832;16.838;2023-08-30T12:01:03;2.00;;;1.37;;
32365;SDS011;18837;46.832;16.838;2023-08-30T12:03:30;1.50;;;1.40;;
32365;SDS011;18837;46.832;16.838;2023-08-30T12:05:57;1.50;;;1.40;;
32365;SDS011;18837;46.832;16.838;2023-08-30T12:08:24;1.57;;;1.47;;
32365;SDS011;18837;46.832;16.838;2023-08-30T12:10:55;1.50;;;1.40;;
32365;SDS011;18837;46.832;16.838;2023-08-30T12:13:25;2.40;;;1.50;;
32365;SDS011;18837;46.832;16.838;2023-08-30T12:15:53;1.50;;;1.40;;
32365;SDS011;18837;46.832;16.838;2023-08-30T12:18:27;1.10;;;1.10;;
32365;SDS011;18837;46.832;16.838;2023-08-30T12:20:54;1.90;;;1.70;;
32365;SDS011;18837;46.832;16.838;2023-08-30T12:23:28;1.20;;;1.07;;
32365;SDS011;18837;46.832;16.838;2023-08-30T12:26:11;1.40;;;1.30;;
32365;SDS011;18837;46.832;16.838;2023-08-30T12:28:38;1.60;;;1.50;;
32365;SDS011;18837;46.832;16.838;2023-08-30T12:31:05;2.83;;;2.60;;
32365;SDS011;18837;46.832;16.838;2023-08-30T12:33:32;15.90;;;14.40;;
32365;SDS011;18837;46.832;16.838;2023-08-30T12:35:59;12.33;;;10.60;;
32365;SDS011;18837;46.832;16.838;2023-08-30T12:38:26;8.50;;;7.60;;
32365;SDS011;18837;46.832;16.838;2023-08-30T12:40:56;13.23;;;6.97;;
32365;SDS011;18837;46.832;16.838;2023-08-30T12:48:52;7.47;;;5.10;;
32365;SDS011;18837;46.832;16.838;2023-08-30T12:51:18;9.40;;;4.70;;
32365;SDS011;18837;46.832;16.838;2023-08-30T12:53:44;9.80;;;4.60;;
32365;SDS011;18837;46.832;16.838;2023-08-30T12:56:10;9.00;;;4.60;;
32365;SDS011;18837;46.832;16.838;2023-08-30T12:58:35;7.73;;;3.90;;
32365;SDS011;18837;46.832;16.838;2023-08-30T13:01:01;8.13;;;4.73;;
32365;SDS011;18837;46.832;16.838;2023-08-30T13:03:27;5.20;;;4.37;;
32365;SDS011;18837;46.832;16.838;2023-08-30T13:05:53;7.60;;;4.17;;
32365;SDS011;18837;46.832;16.838;2023-08-30T13:08:19;5.17;;;3.70;;
32365;SDS011;18837;46.832;16.838;2023-08-30T13:10:44;4.90;;;3.40;;
32365;SDS011;18837;46.832;16.838;2023-08-30T13:13:10;4.43;;;3.30;;
32365;SDS011;18837;46.832;16.838;2023-08-30T13:15:36;3.77;;;3.20;;
32365;SDS011;18837;46.832;16.838;2023-08-30T13:18:02;3.90;;;3.10;;
32365;SDS011;18837;46.832;16.838;2023-08-30T13:20:28;4.93;;;3.17;;
32365;SDS011;18837;46.832;16.838;2023-08-30T13:22:55;4.47;;;2.87;;
32365;SDS011;18837;46.832;16.838;2023-08-30T13:25:21;3.07;;;2.77;;
32365;SDS011;18837;46.832;16.838;2023-08-30T13:27:47;2.90;;;2.57;;
32365;SDS011;18837;46.832;16.838;2023-08-30T13:30:13;3.73;;;2.80;;
32365;SDS011;18837;46.832;16.838;2023-08-30T13:32:39;2.47;;;2.27;;
32365;SDS011;18837;46.832;16.838;2023-08-30T13:35:05;2.70;;;2.43;;
32365;SDS011;18837;46.832;16.838;2023-08-30T13:37:31;3.47;;;2.47;;
32365;SDS011;18837;46.832;16.838;2023-08-30T13:39:58;2.50;;;2.30;;
32365;SDS011;18837;46.832;16.838;2023-08-30T13:42:24;3.73;;;2.27;;
32365;SDS011;18837;46.832;16.838;2023-08-30T13:44:50;2.30;;;2.10;;
32365;SDS011;18837;46.832;16.838;2023-08-30T13:47:16;2.80;;;2.10;;
32365;SDS011;18837;46.832;16.838;2023-08-30T13:49:44;2.70;;;2.23;;
32365;SDS011;18837;46.832;16.838;2023-08-30T13:52:10;2.37;;;2.00;;
32365;SDS011;18837;46.832;16.838;2023-08-30T13:54:36;2.23;;;2.03;;
32365;SDS011;18837;46.832;16.838;2023-08-30T13:57:02;3.40;;;2.10;;
32365;SDS011;18837;46.832;16.838;2023-08-30T13:59:28;2.20;;;2.00;;
32365;SDS011;18837;46.832;16.838;2023-08-30T14:01:58;2.30;;;2.10;;
32365;SDS011;18837;46.832;16.838;2023-08-30T14:04:24;1.80;;;1.70;;
32365;SDS011;18837;46.832;16.838;2023-08-30T14:06:50;1.77;;;1.60;;
32365;SDS011;18837;46.832;16.838;2023-08-30T14:09:16;2.00;;;1.90;;
32365;SDS011;18837;46.832;16.838;2023-08-30T14:11:42;2.33;;;1.80;;
32365;SDS011;18837;46.832;16.838;2023-08-30T14:14:09;3.10;;;1.63;;
32365;SDS011;18837;46.832;16.838;2023-08-30T14:20:12;1.70;;;1.60;;
32365;SDS011;18837;46.832;16.838;2023-08-30T14:22:38;1.87;;;1.70;;
32365;SDS011;18837;46.832;16.838;2023-08-30T14:25:04;1.60;;;1.50;;
32365;SDS011;18837;46.832;16.838;2023-08-30T14:27:30;1.63;;;1.50;;
32365;SDS011;18837;46.832;16.838;2023-08-30T14:29:56;1.70;;;1.60;;
32365;SDS011;18837;46.832;16.838;2023-08-30T14:32:22;1.73;;;1.63;;
32365;SDS011;18837;46.832;16.838;2023-08-30T14:34:48;1.47;;;1.37;;
32365;SDS011;18837;46.832;16.838;2023-08-30T14:37:14;3.00;;;1.50;;
32365;SDS011;18837;46.832;16.838;2023-08-30T14:39:40;1.40;;;1.30;;
32365;SDS011;18837;46.832;16.838;2023-08-30T14:42:05;1.50;;;1.40;;
32365;SDS011;18837;46.832;16.838;2023-08-30T14:44:31;1.43;;;1.33;;
32365;SDS011;18837;46.832;16.838;2023-08-30T14:46:57;1.77;;;1.40;;
32365;SDS011;18837;46.832;16.838;2023-08-30T14:49:23;1.57;;;1.10;;
32365;SDS011;18837;46.832;16.838;2023-08-30T14:51:49;1.50;;;1.40;;
32365;SDS011;18837;46.832;16.838;2023-08-30T14:54:14;1.83;;;1.63;;
32365;SDS011;18837;46.832;16.838;2023-08-30T14:56:40;1.60;;;1.50;;
32365;SDS011;18837;46.832;16.838;2023-08-30T14:59:06;1.57;;;1.47;;
32365;SDS011;18837;46.832;16.838;2023-08-30T15:01:35;1.33;;;1.23;;
32365;SDS011;18837;46.832;16.838;2023-08-30T15:04:00;1.40;;;1.30;;
32365;SDS011;18837;46.832;16.838;2023-08-30T15:06:26;1.30;;;1.20;;
32365;SDS011;18837;46.832;16.838;2023-08-30T15:08:52;1.30;;;1.20;;
32365;SDS011;18837;46.832;16.838;2023-08-30T15:11:17;1.40;;;1.30;;
32365;SDS011;18837;46.832;16.838;2023-08-30T15:37:38;1.40;;;1.30;;
32365;SDS011;18837;46.832;16.838;2023-08-30T15:40:04;1.33;;;1.23;;
32365;SDS011;18837;46.832;16.838;2023-08-30T15:42:34;0.93;;;0.93;;
32365;SDS011;18837;46.832;16.838;2023-08-30T15:45:01;1.10;;;1.10;;
32365;SDS011;18837;46.832;16.838;2023-08-30T15:47:33;1.43;;;1.20;;
32365;SDS011;18837;46.832;16.838;2023-08-30T15:50:08;1.30;;;1.20;;
32365;SDS011;18837;46.832;16.838;2023-08-30T15:52:34;1.67;;;1.40;;
32365;SDS011;18837;46.832;16.838;2023-08-30T15:55:00;1.37;;;1.27;;
32365;SDS011;18837;46.832;16.838;2023-08-30T15:57:27;1.00;;;1.00;;
32365;SDS011;18837;46.832;16.838;2023-08-30T15:59:52;1.73;;;1.40;;
32365;SDS011;18837;46.832;16.838;2023-08-30T16:02:18;1.00;;;1.00;;
32365;SDS011;18837;46.832;16.838;2023-08-30T16:08:18;0.90;;;0.90;;
32365;SDS011;18837;46.832;16.838;2023-08-30T16:10:53;1.93;;;1.10;;
32365;SDS011;18837;46.832;16.838;2023-08-30T16:13:22;1.67;;;1.30;;
32365;SDS011;18837;46.832;16.838;2023-08-30T16:15:48;2.60;;;1.27;;